sensor_id;sensor_type;location;lat;lon;timestamp;pressure;altitude;pressure_sealevel;temperature;humidity
15646;BME280;7922;43.622;1.476;2023-03-18T00:01:16;99677.97;;;10.45;89.03
15646;BME280;7922;43.622;1.476;2023-03-18T00:03:41;99586.88;;;9.92;88.66
15646;BME280;7922;43.622;1.476;2023-03-18T00:06:17;99684.84;;;10.49;88.70
15646;BME280;7922;43.622;1.476;2023-03-18T00:08:44;99607.56;;;10.03;88.91
15646;BME280;7922;43.622;1.476;2023-03-18T00:11:11;99558.34;;;9.80;88.63
15646;BME280;7922;43.622;1.476;2023-03-18T00:13:36;99589.41;;;9.95;88.85
15646;BME280;7922;43.622;1.476;2023-03-18T00:16:03;99593.75;;;9.96;88.89
15646;BME280;7922;43.622;1.476;2023-03-18T00:18:29;99678.66;;;10.50;88.75
15646;BME280;7922;43.622;1.476;2023-03-18T00:20:54;99572.84;;;9.90;88.98
15646;BME280;7922;43.622;1.476;2023-03-18T00:23:20;99633.47;;;10.34;88.85
15646;BME280;7922;43.622;1.476;2023-03-18T00:25:46;99665.22;;;10.53;89.06
15646;BME280;7922;43.622;1.476;2023-03-18T00:28:12;99702.00;;;10.78;88.51
15646;BME280;7922;43.622;1.476;2023-03-18T00:30:38;99620.47;;;10.29;88.97
15646;BME280;7922;43.622;1.476;2023-03-18T00:33:04;99680.28;;;10.71;88.51
15646;BME280;7922;43.622;1.476;2023-03-18T00:35:30;99677.78;;;10.68;88.63
15646;BME280;7922;43.622;1.476;2023-03-18T00:37:56;99627.75;;;10.43;88.77
15646;BME280;7922;43.622;1.476;2023-03-18T00:40:22;99685.63;;;10.70;88.90
15646;BME280;7922;43.622;1.476;2023-03-18T00:42:47;99662.25;;;10.60;88.74
15646;BME280;7922;43.622;1.476;2023-03-18T00:45:14;99718.44;;;10.86;89.27
15646;BME280;7922;43.622;1.476;2023-03-18T00:47:40;99600.59;;;10.19;89.58
15646;BME280;7922;43.622;1.476;2023-03-18T00:50:06;99570.00;;;9.95;89.34
15646;BME280;7922;43.622;1.476;2023-03-18T00:52:32;99733.97;;;10.94;89.16
15646;BME280;7922;43.622;1.476;2023-03-18T00:54:57;99685.00;;;10.65;90.00
15646;BME280;7922;43.622;1.476;2023-03-18T00:57:22;99680.97;;;10.56;89.48
15646;BME280;7922;43.622;1.476;2023-03-18T00:59:47;99584.75;;;10.00;90.05
15646;BME280;7922;43.622;1.476;2023-03-18T01:02:13;99697.03;;;10.72;89.58
15646;BME280;7922;43.622;1.476;2023-03-18T01:04:38;99653.06;;;10.49;89.65
15646;BME280;7922;43.622;1.476;2023-03-18T01:07:03;99593.03;;;10.11;89.62
15646;BME280;7922;43.622;1.476;2023-03-18T01:09:29;99672.28;;;10.54;90.01
15646;BME280;7922;43.622;1.476;2023-03-18T01:11:54;99676.91;;;10.49;89.82
15646;BME280;7922;43.622;1.476;2023-03-18T01:14:19;99652.34;;;10.45;89.64
15646;BME280;7922;43.622;1.476;2023-03-18T01:16:45;99675.31;;;10.64;89.66
15646;BME280;7922;43.622;1.476;2023-03-18T01:19:10;99572.22;;;10.04;89.68
15646;BME280;7922;43.622;1.476;2023-03-18T01:21:35;99675.41;;;10.62;89.54
15646;BME280;7922;43.622;1.476;2023-03-18T01:24:00;99658.88;;;10.57;89.48
15646;BME280;7922;43.622;1.476;2023-03-18T01:26:26;99670.09;;;10.62;89.55
15646;BME280;7922;43.622;1.476;2023-03-18T01:28:51;99651.84;;;10.56;89.41
15646;BME280;7922;43.622;1.476;2023-03-18T01:31:17;99562.44;;;10.06;89.29
15646;BME280;7922;43.622;1.476;2023-03-18T01:33:42;99537.38;;;9.94;89.67
15646;BME280;7922;43.622;1.476;2023-03-18T01:36:08;99653.59;;;10.57;89.33
15646;BME280;7922;43.622;1.476;2023-03-18T01:38:34;99715.25;;;10.97;89.34
15646;BME280;7922;43.622;1.476;2023-03-18T01:40:59;99581.22;;;10.19;89.21
15646;BME280;7922;43.622;1.476;2023-03-18T01:43:35;99700.72;;;10.87;89.37
15646;BME280;7922;43.622;1.476;2023-03-18T01:48:59;99620.94;;;10.38;89.13
15646;BME280;7922;43.622;1.476;2023-03-18T01:51:25;99664.72;;;10.64;89.60
15646;BME280;7922;43.622;1.476;2023-03-18T01:53:52;99572.81;;;10.10;89.60
15646;BME280;7922;43.622;1.476;2023-03-18T01:56:19;99634.63;;;10.47;89.65
15646;BME280;7922;43.622;1.476;2023-03-18T01:58:47;99613.09;;;10.36;89.62
15646;BME280;7922;43.622;1.476;2023-03-18T02:04:02;99597.09;;;10.19;89.48
15646;BME280;7922;43.622;1.476;2023-03-18T02:06:28;99592.75;;;10.18;89.05
15646;BME280;7922;43.622;1.476;2023-03-18T02:08:54;99658.22;;;10.52;89.48
15646;BME280;7922;43.622;1.476;2023-03-18T02:11:19;99677.06;;;10.65;89.09
15646;BME280;7922;43.622;1.476;2023-03-18T02:13:45;99666.88;;;10.55;89.82
15646;BME280;7922;43.622;1.476;2023-03-18T02:16:24;99697.59;;;10.59;89.54
15646;BME280;7922;43.622;1.476;2023-03-18T02:18:53;99673.75;;;10.41;89.07
15646;BME280;7922;43.622;1.476;2023-03-18T02:24:21;99781.44;;;10.98;87.78
15646;BME280;7922;43.622;1.476;2023-03-18T02:29:39;99762.66;;;10.84;87.91
15646;BME280;7922;43.622;1.476;2023-03-18T02:32:06;99775.84;;;10.85;88.26
15646;BME280;7922;43.622;1.476;2023-03-18T02:34:32;99802.41;;;11.03;88.02
15646;BME280;7922;43.622;1.476;2023-03-18T02:36:59;99644.03;;;9.96;87.84
15646;BME280;7922;43.622;1.476;2023-03-18T02:39:24;99745.03;;;10.45;87.98
15646;BME280;7922;43.622;1.476;2023-03-18T02:41:49;99793.97;;;10.57;88.18
15646;BME280;7922;43.622;1.476;2023-03-18T02:44:15;99668.16;;;9.70;88.32
15646;BME280;7922;43.622;1.476;2023-03-18T02:46:48;99821.16;;;10.60;88.14
15646;BME280;7922;43.622;1.476;2023-03-18T02:49:17;99730.59;;;10.13;88.49
15646;BME280;7922;43.622;1.476;2023-03-18T02:51:43;99741.97;;;10.15;88.23
15646;BME280;7922;43.622;1.476;2023-03-18T02:54:16;99782.19;;;10.23;88.84
15646;BME280;7922;43.622;1.476;2023-03-18T02:56:42;99808.09;;;10.37;88.58
15646;BME280;7922;43.622;1.476;2023-03-18T02:59:09;99766.84;;;10.11;88.37
15646;BME280;7922;43.622;1.476;2023-03-18T03:01:36;99690.09;;;9.72;88.13
15646;BME280;7922;43.622;1.476;2023-03-18T03:04:03;99791.78;;;10.46;88.06
15646;BME280;7922;43.622;1.476;2023-03-18T03:06:29;99682.19;;;9.91;87.83
15646;BME280;7922;43.622;1.476;2023-03-18T03:08:55;99766.53;;;10.39;87.89
15646;BME280;7922;43.622;1.476;2023-03-18T03:11:20;99781.25;;;10.45;88.52
15646;BME280;7922;43.622;1.476;2023-03-18T03:13:46;99620.63;;;9.48;87.65
15646;BME280;7922;43.622;1.476;2023-03-18T03:16:13;99791.72;;;10.48;88.17
15646;BME280;7922;43.622;1.476;2023-03-18T03:18:39;99633.69;;;9.51;87.89
15646;BME280;7922;43.622;1.476;2023-03-18T03:21:04;99696.78;;;9.80;88.16
15646;BME280;7922;43.622;1.476;2023-03-18T03:23:30;99780.72;;;10.16;88.64
15646;BME280;7922;43.622;1.476;2023-03-18T03:25:55;99571.78;;;8.95;88.90
15646;BME280;7922;43.622;1.476;2023-03-18T03:28:20;99697.97;;;9.73;88.47
15646;BME280;7922;43.622;1.476;2023-03-18T03:30:46;99791.41;;;10.35;88.25
15646;BME280;7922;43.622;1.476;2023-03-18T03:33:12;99793.25;;;10.33;88.43
15646;BME280;7922;43.622;1.476;2023-03-18T03:35:38;99708.66;;;9.91;88.43
15646;BME280;7922;43.622;1.476;2023-03-18T03:38:04;99801.38;;;10.49;87.88
15646;BME280;7922;43.622;1.476;2023-03-18T03:40:29;99691.91;;;9.90;87.46
15646;BME280;7922;43.622;1.476;2023-03-18T03:42:55;99643.75;;;9.43;87.87
15646;BME280;7922;43.622;1.476;2023-03-18T03:45:20;99747.88;;;10.01;88.08
15646;BME280;7922;43.622;1.476;2023-03-18T03:47:46;99780.38;;;10.24;87.97
15646;BME280;7922;43.622;1.476;2023-03-18T03:50:12;99816.91;;;10.56;87.39
15646;BME280;7922;43.622;1.476;2023-03-18T03:52:38;99803.84;;;10.53;87.87
15646;BME280;7922;43.622;1.476;2023-03-18T03:55:05;99802.31;;;10.48;88.11
15646;BME280;7922;43.622;1.476;2023-03-18T03:57:32;99758.56;;;10.19;88.38
15646;BME280;7922;43.622;1.476;2023-03-18T03:59:57;99778.69;;;10.23;88.32
15646;BME280;7922;43.622;1.476;2023-03-18T04:02:23;99763.66;;;10.23;88.12
15646;BME280;7922;43.622;1.476;2023-03-18T04:04:48;99615.94;;;9.34;88.13
15646;BME280;7922;43.622;1.476;2023-03-18T04:07:14;99748.59;;;10.05;87.91
15646;BME280;7922;43.622;1.476;2023-03-18T04:09:39;99783.94;;;10.24;87.52
15646;BME280;7922;43.622;1.476;2023-03-18T04:12:05;99734.13;;;9.93;87.57
15646;BME280;7922;43.622;1.476;2023-03-18T04:14:30;99738.34;;;9.97;87.41
15646;BME280;7922;43.622;1.476;2023-03-18T04:16:55;99748.78;;;10.00;87.15
15646;BME280;7922;43.622;1.476;2023-03-18T04:19:21;99670.31;;;9.60;86.96
15646;BME280;7922;43.622;1.476;2023-03-18T04:21:46;99764.13;;;10.12;87.04
15646;BME280;7922;43.622;1.476;2023-03-18T04:24:11;99610.38;;;9.20;86.63
15646;BME280;7922;43.622;1.476;2023-03-18T04:26:37;99666.28;;;9.51;85.97
15646;BME280;7922;43.622;1.476;2023-03-18T04:29:02;99742.91;;;9.94;86.41
15646;BME280;7922;43.622;1.476;2023-03-18T04:31:27;99743.03;;;9.91;85.85
15646;BME280;7922;43.622;1.476;2023-03-18T04:33:53;99769.13;;;10.00;86.19
15646;BME280;7922;43.622;1.476;2023-03-18T04:36:18;99693.59;;;9.52;85.98
15646;BME280;7922;43.622;1.476;2023-03-18T04:38:43;99686.03;;;9.43;85.34
15646;BME280;7922;43.622;1.476;2023-03-18T04:41:08;99650.81;;;9.22;85.80
15646;BME280;7922;43.622;1.476;2023-03-18T04:43:34;99686.03;;;9.43;85.55
15646;BME280;7922;43.622;1.476;2023-03-18T04:45:59;99676.13;;;9.27;86.08
15646;BME280;7922;43.622;1.476;2023-03-18T04:48:24;99810.78;;;10.15;85.93
15646;BME280;7922;43.622;1.476;2023-03-18T04:50:50;99662.72;;;9.32;86.32
15646;BME280;7922;43.622;1.476;2023-03-18T04:53:15;99775.59;;;9.93;86.26
15646;BME280;7922;43.622;1.476;2023-03-18T04:55:41;99676.66;;;9.35;85.98
15646;BME280;7922;43.622;1.476;2023-03-18T04:58:06;99768.50;;;9.93;85.62
15646;BME280;7922;43.622;1.476;2023-03-18T05:00:31;99744.84;;;9.70;86.22
15646;BME280;7922;43.622;1.476;2023-03-18T05:02:56;99835.41;;;10.17;85.79
15646;BME280;7922;43.622;1.476;2023-03-18T05:05:22;99711.56;;;9.44;85.71
15646;BME280;7922;43.622;1.476;2023-03-18T05:07:47;99673.59;;;9.24;85.86
15646;BME280;7922;43.622;1.476;2023-03-18T05:10:14;99680.59;;;9.25;85.61
15646;BME280;7922;43.622;1.476;2023-03-18T05:12:40;99745.09;;;9.63;85.96
15646;BME280;7922;43.622;1.476;2023-03-18T05:15:06;99693.66;;;9.30;86.00
15646;BME280;7922;43.622;1.476;2023-03-18T05:17:31;99803.00;;;9.92;86.27
15646;BME280;7922;43.622;1.476;2023-03-18T05:19:57;99803.00;;;9.92;86.18
15646;BME280;7922;43.622;1.476;2023-03-18T05:22:22;99798.72;;;9.87;85.85
15646;BME280;7922;43.622;1.476;2023-03-18T05:24:48;99848.56;;;10.19;85.88
15646;BME280;7922;43.622;1.476;2023-03-18T05:27:15;99671.03;;;9.23;85.66
15646;BME280;7922;43.622;1.476;2023-03-18T05:29:41;99699.84;;;9.29;85.34
15646;BME280;7922;43.622;1.476;2023-03-18T05:32:07;99836.19;;;10.19;85.44
15646;BME280;7922;43.622;1.476;2023-03-18T05:34:33;99805.16;;;9.82;85.86
15646;BME280;7922;43.622;1.476;2023-03-18T05:36:58;99696.00;;;9.15;86.17
15646;BME280;7922;43.622;1.476;2023-03-18T05:39:24;99773.50;;;9.58;86.15
15646;BME280;7922;43.622;1.476;2023-03-18T05:41:49;99797.53;;;9.74;85.95
15646;BME280;7922;43.622;1.476;2023-03-18T05:44:14;99713.00;;;9.30;85.99
15646;BME280;7922;43.622;1.476;2023-03-18T05:46:40;99800.78;;;9.81;85.97
15646;BME280;7922;43.622;1.476;2023-03-18T05:49:05;99789.06;;;9.66;86.16
15646;BME280;7922;43.622;1.476;2023-03-18T05:51:30;99796.69;;;9.74;86.19
15646;BME280;7922;43.622;1.476;2023-03-18T05:53:55;99698.25;;;9.25;85.62
15646;BME280;7922;43.622;1.476;2023-03-18T05:56:21;99817.13;;;9.91;85.62
15646;BME280;7922;43.622;1.476;2023-03-18T05:58:46;99691.69;;;9.13;85.09
15646;BME280;7922;43.622;1.476;2023-03-18T06:01:11;99679.22;;;9.16;85.36
15646;BME280;7922;43.622;1.476;2023-03-18T06:03:37;99861.38;;;10.29;85.65
15646;BME280;7922;43.622;1.476;2023-03-18T06:06:02;99708.78;;;9.47;84.37
15646;BME280;7922;43.622;1.476;2023-03-18T06:08:27;99787.38;;;9.85;84.64
15646;BME280;7922;43.622;1.476;2023-03-18T06:10:53;99710.31;;;9.52;85.14
15646;BME280;7922;43.622;1.476;2023-03-18T06:13:19;99728.25;;;9.66;85.27
15646;BME280;7922;43.622;1.476;2023-03-18T06:15:44;99823.03;;;10.18;84.93
15646;BME280;7922;43.622;1.476;2023-03-18T06:18:10;99670.72;;;9.30;84.85
15646;BME280;7922;43.622;1.476;2023-03-18T06:20:35;99860.91;;;10.40;84.22
15646;BME280;7922;43.622;1.476;2023-03-18T06:23:00;99690.47;;;9.42;83.91
15646;BME280;7922;43.622;1.476;2023-03-18T06:25:26;99820.00;;;10.27;84.16
15646;BME280;7922;43.622;1.476;2023-03-18T06:27:51;99699.88;;;9.70;84.26
15646;BME280;7922;43.622;1.476;2023-03-18T06:30:17;99724.72;;;9.86;83.92
15646;BME280;7922;43.622;1.476;2023-03-18T06:32:43;99823.38;;;10.51;83.86
15646;BME280;7922;43.622;1.476;2023-03-18T06:35:09;99748.59;;;10.05;83.79
15646;BME280;7922;43.622;1.476;2023-03-18T06:37:35;99720.16;;;9.89;83.65
15646;BME280;7922;43.622;1.476;2023-03-18T06:40:01;99808.31;;;10.51;83.51
15646;BME280;7922;43.622;1.476;2023-03-18T06:42:26;99781.59;;;10.37;82.40
15646;BME280;7922;43.622;1.476;2023-03-18T06:44:51;99754.09;;;10.21;82.31
15646;BME280;7922;43.622;1.476;2023-03-18T06:47:17;99813.75;;;10.48;82.39
15646;BME280;7922;43.622;1.476;2023-03-18T06:49:43;99849.75;;;10.73;82.69
15646;BME280;7922;43.622;1.476;2023-03-18T06:52:08;99777.81;;;10.22;82.78
15646;BME280;7922;43.622;1.476;2023-03-18T06:54:33;99833.69;;;10.57;82.77
15646;BME280;7922;43.622;1.476;2023-03-18T06:56:59;99836.38;;;10.55;82.89
15646;BME280;7922;43.622;1.476;2023-03-18T06:59:24;99777.75;;;10.24;82.19
15646;BME280;7922;43.622;1.476;2023-03-18T07:01:49;99734.50;;;10.04;82.18
15646;BME280;7922;43.622;1.476;2023-03-18T07:04:14;99689.41;;;9.87;81.74
15646;BME280;7922;43.622;1.476;2023-03-18T07:06:40;99810.75;;;10.56;82.28
15646;BME280;7922;43.622;1.476;2023-03-18T07:09:05;99760.78;;;10.29;82.08
15646;BME280;7922;43.622;1.476;2023-03-18T07:11:31;99807.03;;;10.60;81.80
15646;BME280;7922;43.622;1.476;2023-03-18T07:13:56;99806.13;;;10.61;82.04
15646;BME280;7922;43.622;1.476;2023-03-18T07:16:22;99755.25;;;10.34;82.43
15646;BME280;7922;43.622;1.476;2023-03-18T07:18:47;99813.88;;;10.66;82.15
15646;BME280;7922;43.622;1.476;2023-03-18T07:21:12;99738.47;;;10.35;82.27
15646;BME280;7922;43.622;1.476;2023-03-18T07:23:38;99834.78;;;10.91;81.94
15646;BME280;7922;43.622;1.476;2023-03-18T07:26:03;99718.28;;;10.32;81.41
15646;BME280;7922;43.622;1.476;2023-03-18T07:28:29;99789.66;;;10.73;80.80
15646;BME280;7922;43.622;1.476;2023-03-18T07:30:54;99840.06;;;11.28;80.64
15646;BME280;7922;43.622;1.476;2023-03-18T07:33:20;99805.22;;;11.19;79.97
15646;BME280;7922;43.622;1.476;2023-03-18T07:35:45;99684.13;;;10.45;80.03
15646;BME280;7922;43.622;1.476;2023-03-18T07:38:10;99833.97;;;11.45;79.39
15646;BME280;7922;43.622;1.476;2023-03-18T07:40:36;99808.97;;;11.32;79.70
15646;BME280;7922;43.622;1.476;2023-03-18T07:43:03;99833.19;;;11.43;79.48
15646;BME280;7922;43.622;1.476;2023-03-18T07:45:29;99720.47;;;10.98;78.88
15646;BME280;7922;43.622;1.476;2023-03-18T07:47:54;99861.94;;;11.89;79.31
15646;BME280;7922;43.622;1.476;2023-03-18T07:50:20;99799.06;;;11.72;78.77
15646;BME280;7922;43.622;1.476;2023-03-18T07:52:45;99696.28;;;11.23;78.59
15646;BME280;7922;43.622;1.476;2023-03-18T07:55:11;99824.47;;;12.12;79.20
15646;BME280;7922;43.622;1.476;2023-03-18T07:57:37;99689.63;;;11.32;78.46
15646;BME280;7922;43.622;1.476;2023-03-18T08:00:07;99843.59;;;12.19;79.49
15646;BME280;7922;43.622;1.476;2023-03-18T08:02:32;99814.09;;;12.08;78.95
15646;BME280;7922;43.622;1.476;2023-03-18T08:04:58;99785.53;;;11.95;78.53
15646;BME280;7922;43.622;1.476;2023-03-18T08:07:23;99752.69;;;11.79;78.24
15646;BME280;7922;43.622;1.476;2023-03-18T08:09:48;99863.88;;;12.72;77.73
15646;BME280;7922;43.622;1.476;2023-03-18T08:12:14;99704.22;;;12.10;76.50
15646;BME280;7922;43.622;1.476;2023-03-18T08:14:39;99755.75;;;12.57;76.09
15646;BME280;7922;43.622;1.476;2023-03-18T08:17:04;99850.63;;;13.04;75.54
15646;BME280;7922;43.622;1.476;2023-03-18T08:19:30;99859.06;;;13.12;75.32
15646;BME280;7922;43.622;1.476;2023-03-18T08:21:55;99847.38;;;13.14;75.01
15646;BME280;7922;43.622;1.476;2023-03-18T08:24:21;99893.94;;;13.55;74.73
15646;BME280;7922;43.622;1.476;2023-03-18T08:26:46;99730.97;;;12.72;75.34
15646;BME280;7922;43.622;1.476;2023-03-18T08:29:11;99855.31;;;13.63;75.13
15646;BME280;7922;43.622;1.476;2023-03-18T08:31:36;99840.00;;;13.67;74.61
15646;BME280;7922;43.622;1.476;2023-03-18T08:34:02;99760.38;;;13.32;74.22
15646;BME280;7922;43.622;1.476;2023-03-18T08:36:27;99702.69;;;12.71;74.81
15646;BME280;7922;43.622;1.476;2023-03-18T08:38:52;99804.41;;;13.22;74.38
15646;BME280;7922;43.622;1.476;2023-03-18T08:41:18;99826.59;;;13.84;73.38
15646;BME280;7922;43.622;1.476;2023-03-18T08:43:43;99898.47;;;14.44;72.17
15646;BME280;7922;43.622;1.476;2023-03-18T08:46:08;99825.66;;;14.30;71.49
15646;BME280;7922;43.622;1.476;2023-03-18T08:48:34;99864.88;;;14.72;70.20
15646;BME280;7922;43.622;1.476;2023-03-18T08:51:03;99895.34;;;14.82;70.98
15646;BME280;7922;43.622;1.476;2023-03-18T08:53:29;99754.84;;;14.26;70.09
15646;BME280;7922;43.622;1.476;2023-03-18T08:55:54;99874.22;;;15.08;68.17
15646;BME280;7922;43.622;1.476;2023-03-18T08:58:19;99905.31;;;15.50;68.83
15646;BME280;7922;43.622;1.476;2023-03-18T09:00:45;99866.06;;;15.24;68.22
15646;BME280;7922;43.622;1.476;2023-03-18T09:03:10;99755.34;;;14.47;69.05
15646;BME280;7922;43.622;1.476;2023-03-18T09:05:36;99884.69;;;15.11;70.14
15646;BME280;7922;43.622;1.476;2023-03-18T09:08:01;99773.63;;;14.38;70.23
15646;BME280;7922;43.622;1.476;2023-03-18T09:10:26;99796.34;;;14.44;71.35
15646;BME280;7922;43.622;1.476;2023-03-18T09:12:52;99876.69;;;14.68;71.29
15646;BME280;7922;43.622;1.476;2023-03-18T09:15:18;99871.72;;;14.62;71.69
15646;BME280;7922;43.622;1.476;2023-03-18T09:17:43;99774.72;;;13.76;72.68
15646;BME280;7922;43.622;1.476;2023-03-18T09:20:10;99870.00;;;14.61;72.01
15646;BME280;7922;43.622;1.476;2023-03-18T09:22:36;99826.44;;;14.46;71.99
15646;BME280;7922;43.622;1.476;2023-03-18T09:25:02;99920.97;;;14.99;72.27
15646;BME280;7922;43.622;1.476;2023-03-18T09:27:27;99877.44;;;14.84;72.08
15646;BME280;7922;43.622;1.476;2023-03-18T09:29:52;99813.00;;;14.33;71.98
15646;BME280;7922;43.622;1.476;2023-03-18T09:32:18;99905.63;;;14.60;72.78
15646;BME280;7922;43.622;1.476;2023-03-18T09:34:43;99885.69;;;14.21;73.45
15646;BME280;7922;43.622;1.476;2023-03-18T09:37:10;99804.34;;;13.85;73.17
15646;BME280;7922;43.622;1.476;2023-03-18T09:39:35;99905.03;;;14.55;73.44
15646;BME280;7922;43.622;1.476;2023-03-18T09:44:48;99921.50;;;14.61;73.46
15646;BME280;7922;43.622;1.476;2023-03-18T09:47:29;99790.34;;;13.82;73.53
15646;BME280;7922;43.622;1.476;2023-03-18T09:52:44;99836.91;;;14.35;73.44
15646;BME280;7922;43.622;1.476;2023-03-18T09:58:15;99865.63;;;14.60;72.58
15646;BME280;7922;43.622;1.476;2023-03-18T10:00:42;99900.09;;;15.06;71.84
15646;BME280;7922;43.622;1.476;2023-03-18T10:03:29;99918.31;;;14.99;71.94
15646;BME280;7922;43.622;1.476;2023-03-18T10:06:06;99883.72;;;14.83;72.03
15646;BME280;7922;43.622;1.476;2023-03-18T10:11:42;99788.44;;;14.28;72.45
15646;BME280;7922;43.622;1.476;2023-03-18T10:14:17;99913.38;;;15.22;72.56
15646;BME280;7922;43.622;1.476;2023-03-18T10:17:45;99912.13;;;15.13;72.46
15646;BME280;7922;43.622;1.476;2023-03-18T10:20:02;99854.56;;;14.80;72.55
15646;BME280;7922;43.622;1.476;2023-03-18T10:25:40;99896.16;;;15.69;71.20
15646;BME280;7922;43.622;1.476;2023-03-18T10:28:31;99887.94;;;15.57;70.85
15646;BME280;7922;43.622;1.476;2023-03-18T10:36:02;99844.69;;;15.38;71.08
15646;BME280;7922;43.622;1.476;2023-03-18T10:38:33;99742.09;;;14.74;70.82
15646;BME280;7922;43.622;1.476;2023-03-18T10:41:00;99737.84;;;14.71;72.01
15646;BME280;7922;43.622;1.476;2023-03-18T10:43:30;99798.31;;;15.26;69.41
15646;BME280;7922;43.622;1.476;2023-03-18T10:46:00;99791.75;;;15.17;69.91
15646;BME280;7922;43.622;1.476;2023-03-18T10:48:31;99855.84;;;15.45;70.35
15646;BME280;7922;43.622;1.476;2023-03-18T10:56:27;99856.66;;;15.74;69.71
15646;BME280;7922;43.622;1.476;2023-03-18T10:58:54;99599.78;;;14.20;70.28
15646;BME280;7922;43.622;1.476;2023-03-18T11:01:20;99884.56;;;15.82;69.42
15646;BME280;7922;43.622;1.476;2023-03-18T11:04:02;99856.78;;;15.85;69.54
15646;BME280;7922;43.622;1.476;2023-03-18T11:09:19;99770.63;;;15.41;68.94
15646;BME280;7922;43.622;1.476;2023-03-18T11:11:47;99904.84;;;16.12;69.26
15646;BME280;7922;43.622;1.476;2023-03-18T11:14:28;99752.91;;;15.40;67.92
15646;BME280;7922;43.622;1.476;2023-03-18T11:16:59;99877.38;;;16.50;67.54
15646;BME280;7922;43.622;1.476;2023-03-18T11:22:21;99835.16;;;16.15;67.13
15646;BME280;7922;43.622;1.476;2023-03-18T11:24:45;99804.47;;;15.95;67.61
15646;BME280;7922;43.622;1.476;2023-03-18T11:29:49;99900.75;;;16.86;66.76
15646;BME280;7922;43.622;1.476;2023-03-18T11:35:05;99797.56;;;16.44;65.66
15646;BME280;7922;43.622;1.476;2023-03-18T11:37:32;99897.72;;;17.29;65.04
15646;BME280;7922;43.622;1.476;2023-03-18T11:42:39;99890.03;;;17.12;63.78
15646;BME280;7922;43.622;1.476;2023-03-18T11:47:46;99828.69;;;16.70;65.37
15646;BME280;7922;43.622;1.476;2023-03-18T11:50:19;99742.09;;;16.97;63.08
15646;BME280;7922;43.622;1.476;2023-03-18T12:00:52;99877.75;;;17.70;60.75
15646;BME280;7922;43.622;1.476;2023-03-18T12:06:27;99896.28;;;18.10;61.67
15646;BME280;7922;43.622;1.476;2023-03-18T12:10:11;99855.53;;;18.04;59.84
15646;BME280;7922;43.622;1.476;2023-03-18T12:20:49;99821.50;;;17.70;60.28
15646;BME280;7922;43.622;1.476;2023-03-18T12:26:20;99842.59;;;17.74;58.76
15646;BME280;7922;43.622;1.476;2023-03-18T12:29:30;99884.75;;;18.20;59.42
15646;BME280;7922;43.622;1.476;2023-03-18T12:32:30;99878.13;;;18.48;58.84
15646;BME280;7922;43.622;1.476;2023-03-18T12:45:18;99811.63;;;17.70;59.83
15646;BME280;7922;43.622;1.476;2023-03-18T12:47:49;99870.63;;;17.94;60.82
15646;BME280;7922;43.622;1.476;2023-03-18T12:50:58;99869.91;;;18.03;58.23
15646;BME280;7922;43.622;1.476;2023-03-18T12:53:33;99863.09;;;18.35;58.42
15646;BME280;7922;43.622;1.476;2023-03-18T12:56:02;99725.53;;;17.99;57.14
15646;BME280;7922;43.622;1.476;2023-03-18T12:58:35;99770.88;;;18.71;56.24
15646;BME280;7922;43.622;1.476;2023-03-18T13:01:08;99763.41;;;18.97;56.09
15646;BME280;7922;43.622;1.476;2023-03-18T13:03:37;99866.16;;;18.41;55.72
15646;BME280;7922;43.622;1.476;2023-03-18T13:06:23;99858.53;;;18.59;56.34
15646;BME280;7922;43.622;1.476;2023-03-18T13:14:11;99828.44;;;19.12;55.36
15646;BME280;7922;43.622;1.476;2023-03-18T13:16:38;99849.69;;;19.04;54.18
15646;BME280;7922;43.622;1.476;2023-03-18T13:19:04;99813.19;;;19.01;56.00
15646;BME280;7922;43.622;1.476;2023-03-18T13:21:30;99755.84;;;18.68;54.88
15646;BME280;7922;43.622;1.476;2023-03-18T13:27:07;99818.06;;;18.73;55.47
15646;BME280;7922;43.622;1.476;2023-03-18T13:32:53;99812.84;;;18.25;56.04
15646;BME280;7922;43.622;1.476;2023-03-18T13:40:51;99859.69;;;18.44;56.79
15646;BME280;7922;43.622;1.476;2023-03-18T13:43:21;99769.59;;;17.60;58.04
15646;BME280;7922;43.622;1.476;2023-03-18T13:45:50;99801.84;;;17.82;57.94
15646;BME280;7922;43.622;1.476;2023-03-18T13:48:34;99851.44;;;18.12;56.94
15646;BME280;7922;43.622;1.476;2023-03-18T13:53:47;99744.66;;;17.70;57.07
15646;BME280;7922;43.622;1.476;2023-03-18T13:58:52;99803.94;;;18.25;57.23
15646;BME280;7922;43.622;1.476;2023-03-18T14:08:48;99791.69;;;18.45;57.02
15646;BME280;7922;43.622;1.476;2023-03-18T14:13:43;99673.75;;;17.98;56.45
15646;BME280;7922;43.622;1.476;2023-03-18T14:16:10;99790.09;;;18.65;57.39
15646;BME280;7922;43.622;1.476;2023-03-18T14:18:36;99757.59;;;18.12;57.61
15646;BME280;7922;43.622;1.476;2023-03-18T14:21:03;99791.25;;;18.16;58.34
15646;BME280;7922;43.622;1.476;2023-03-18T14:28:47;99822.97;;;17.74;60.41
15646;BME280;7922;43.622;1.476;2023-03-18T14:36:42;99723.09;;;17.96;58.20
15646;BME280;7922;43.622;1.476;2023-03-18T14:39:16;99626.06;;;17.22;57.40
15646;BME280;7922;43.622;1.476;2023-03-18T14:41:45;99695.66;;;17.57;57.98
15646;BME280;7922;43.622;1.476;2023-03-18T14:44:23;99701.63;;;17.85;57.37
15646;BME280;7922;43.622;1.476;2023-03-18T14:46:57;99812.81;;;18.14;57.60
15646;BME280;7922;43.622;1.476;2023-03-18T14:49:43;99720.25;;;17.86;57.08
15646;BME280;7922;43.622;1.476;2023-03-18T14:52:29;99803.94;;;17.90;57.53
15646;BME280;7922;43.622;1.476;2023-03-18T14:54:59;99799.94;;;17.71;59.12
15646;BME280;7922;43.622;1.476;2023-03-18T14:57:25;99756.47;;;16.96;60.12
15646;BME280;7922;43.622;1.476;2023-03-18T14:59:51;99787.56;;;17.09;60.61
15646;BME280;7922;43.622;1.476;2023-03-18T15:02:31;99670.19;;;16.43;60.68
15646;BME280;7922;43.622;1.476;2023-03-18T15:04:59;99792.19;;;17.31;60.66
15646;BME280;7922;43.622;1.476;2023-03-18T15:07:33;99695.06;;;16.69;61.72
15646;BME280;7922;43.622;1.476;2023-03-18T15:12:35;99748.16;;;17.12;62.30
15646;BME280;7922;43.622;1.476;2023-03-18T15:15:01;99679.41;;;16.39;62.56
15646;BME280;7922;43.622;1.476;2023-03-18T15:17:26;99731.47;;;16.46;62.58
15646;BME280;7922;43.622;1.476;2023-03-18T15:19:55;99763.13;;;16.65;63.47
15646;BME280;7922;43.622;1.476;2023-03-18T15:22:23;99694.84;;;16.09;63.83
15646;BME280;7922;43.622;1.476;2023-03-18T15:24:58;99668.72;;;15.75;64.07
15646;BME280;7922;43.622;1.476;2023-03-18T15:27:24;99740.44;;;15.94;64.50